Time;durP1;ratioP1;P1;durP2;ratioP2;P2;SDS_P1;SDS_P2;PMS_P1;PMS_P2;Temp;Humidity;BMP_temperature;BMP_pressure;BME280_temperature;BME280_humidity;BME280_pressure;Samples;Min_cycle;Max_cycle;Signal;HPM_P1;HPM_P2
2021/07/27 00:00:08;;;;;;;0.40;0.00;;;;;;;23.42;73.00;99998.41;125887;1096;113790;-70
2021/07/27 00:02:35;;;;;;;0.40;0.00;;;;;;;23.48;72.45;100004.17;126148;1095;102888;-71
2021/07/27 00:05:03;;;;;;;0.40;0.00;;;;;;;23.38;72.38;100004.13;125822;1096;114093;-71
2021/07/27 00:07:30;;;;;;;0.40;0.00;;;;;;;23.32;72.56;99996.49;125976;1094;103016;-71
2021/07/27 00:09:57;;;;;;;0.40;0.00;;;;;;;23.41;72.72;100003.00;125924;1096;114138;-71
2021/07/27 00:12:24;;;;;;;0.40;0.00;;;;;;;23.45;72.26;100001.73;125889;1095;103084;-71
2021/07/27 00:14:52;;;;;;;0.40;0.00;;;;;;;23.48;72.02;99998.74;125961;1096;102956;-71
2021/07/27 00:17:19;;;;;;;0.40;0.00;;;;;;;23.45;71.64;100000.89;125876;1096;113950;-71
2021/07/27 00:19:46;;;;;;;0.40;0.00;;;;;;;23.46;72.34;99997.15;126001;1094;102914;-71
2021/07/27 00:22:13;;;;;;;0.40;0.00;;;;;;;23.40;72.02;99986.83;125875;1094;114085;-71
2021/07/27 00:24:40;;;;;;;0.40;0.00;;;;;;;23.43;71.89;99983.84;126085;1096;102884;-71
2021/07/27 00:27:08;;;;;;;0.40;0.00;;;;;;;23.40;71.67;99982.25;125988;1094;103169;-71
2021/07/27 00:29:35;;;;;;;0.40;0.00;;;;;;;23.44;71.57;99986.42;125946;1095;113917;-71
2021/07/27 00:32:02;;;;;;;0.40;0.00;;;;;;;23.45;71.34;99985.43;125984;1096;103082;-70
2021/07/27 00:34:30;;;;;;;0.40;0.00;;;;;;;23.44;71.49;99972.83;125892;1096;114157;-70
2021/07/27 00:36:57;;;;;;;0.40;0.00;;;;;;;23.51;71.37;99984.02;125947;1095;102897;-70
2021/07/27 00:39:24;;;;;;;0.40;0.00;;;;;;;23.43;70.89;99997.42;126013;1095;103493;-71
2021/07/27 00:41:51;;;;;;;0.40;0.00;;;;;;;23.24;71.54;100000.89;125887;1095;113835;-71
2021/07/27 00:44:18;;;;;;;0.40;0.00;;;;;;;23.20;71.90;99997.56;125992;1095;102930;-71
2021/07/27 00:46:45;;;;;;;0.40;0.00;;;;;;;23.16;71.68;99999.67;125879;1096;114348;-70
2021/07/27 00:49:13;;;;;;;0.40;0.00;;;;;;;23.21;71.72;100002.01;126125;1096;102906;-70
2021/07/27 00:51:40;;;;;;;0.40;0.00;;;;;;;23.25;71.49;100008.90;125951;1095;102959;-70
2021/07/27 00:54:08;;;;;;;0.40;0.00;;;;;;;23.24;70.96;99999.02;125917;1096;113979;-70
2021/07/27 00:56:35;;;;;;;0.40;0.00;;;;;;;23.20;71.31;99992.13;125978;1096;104406;-73
2021/07/27 00:59:02;;;;;;;0.40;0.00;;;;;;;23.15;71.84;99995.25;125950;1095;114077;-73
2021/07/27 01:01:31;;;;;;;0.40;0.00;;;;;;;23.21;71.33;99986.55;125961;1095;102980;-73
2021/07/27 01:03:58;;;;;;;0.40;0.00;;;;;;;23.26;70.80;99979.86;125934;1095;114280;-73
2021/07/27 01:06:26;;;;;;;0.40;0.00;;;;;;;23.29;71.13;99979.62;125995;1094;103032;-73
2021/07/27 01:08:53;;;;;;;0.40;0.00;;;;;;;23.29;70.75;99975.03;126039;1095;103207;-73
2021/07/27 01:11:24;;;;;;;0.40;0.00;;;;;;;23.25;70.43;99970.86;125894;1096;114117;-73
2021/07/27 01:13:52;;;;;;;0.40;0.00;;;;;;;23.16;70.47;99979.80;126077;1095;103082;-73
2021/07/27 01:16:24;;;;;;;0.40;0.00;;;;;;;23.01;70.93;99977.38;125858;1094;114124;-73
2021/07/27 01:19:07;;;;;;;0.40;0.00;;;;;;;23.02;71.74;99972.83;126031;1096;103039;-73
2021/07/27 01:40:57;;;;;;;0.40;0.00;;;;;;;22.65;72.87;99998.50;125853;1095;114385;-73
2021/07/27 01:43:29;;;;;;;0.40;0.00;;;;;;;22.71;72.92;99999.83;125989;1095;102959;-73
2021/07/27 01:45:56;;;;;;;0.40;0.00;;;;;;;22.79;72.05;99994.65;125985;1096;103021;-73
2021/07/27 01:48:27;;;;;;;0.40;0.00;;;;;;;22.72;72.47;99996.14;125912;1097;114420;-73
2021/07/27 01:50:58;;;;;;;0.40;0.00;;;;;;;22.86;71.85;99994.99;125896;1096;102901;-73
2021/07/27 01:53:51;;;;;;;0.40;0.00;;;;;;;22.96;71.21;99984.20;125883;1096;113965;-73
2021/07/27 01:56:19;;;;;;;0.40;0.00;;;;;;;23.00;70.34;99969.36;125959;1095;102960;-73
2021/07/27 01:58:51;;;;;;;0.40;0.00;;;;;;;22.93;70.79;99976.32;126419;1095;114296;-73
2021/07/27 02:01:20;;;;;;;0.40;0.00;;;;;;;22.80;71.03;99974.63;125926;1095;102920;-73
2021/07/27 02:03:48;;;;;;;0.40;0.00;;;;;;;22.76;71.25;99977.75;126027;1096;102904;-73
2021/07/27 02:06:18;;;;;;;0.40;0.00;;;;;;;22.63;71.37;99981.50;125867;1094;114302;-73
2021/07/27 02:08:45;;;;;;;0.40;0.00;;;;;;;22.49;72.00;99973.64;126017;1095;103048;-73
2021/07/27 02:11:19;;;;;;;0.40;0.00;;;;;;;22.47;72.33;99983.75;125806;1095;114142;-73
2021/07/27 02:13:51;;;;;;;0.40;0.00;;;;;;;22.61;72.04;99980.75;126007;1095;105196;-73
2021/07/27 02:16:19;;;;;;;0.40;0.00;;;;;;;22.58;72.04;99975.59;125911;1093;114264;-73
2021/07/27 02:18:46;;;;;;;0.40;0.00;;;;;;;22.48;72.04;99977.34;126040;1094;102916;-73
2021/07/27 02:21:13;;;;;;;0.40;0.00;;;;;;;22.43;72.40;99975.02;125965;1096;102900;-73
2021/07/27 02:23:40;;;;;;;0.40;0.00;;;;;;;22.38;72.64;99975.39;125953;1096;114085;-74
2021/07/27 02:26:08;;;;;;;0.40;0.00;;;;;;;22.37;72.75;99981.80;125992;1093;102887;-73
2021/07/27 02:28:35;;;;;;;0.40;0.00;;;;;;;22.48;72.43;99980.91;125935;1094;114118;-73
2021/07/27 02:31:06;;;;;;;0.40;0.00;;;;;;;22.62;72.44;99984.31;125993;1095;102975;-73
2021/07/27 02:33:37;;;;;;;0.40;0.00;;;;;;;22.72;71.71;99979.84;126049;1096;102894;-73
2021/07/27 02:36:04;;;;;;;0.40;0.00;;;;;;;22.84;70.82;99983.38;125905;1096;114054;-73
2021/07/27 02:38:31;;;;;;;0.40;0.00;;;;;;;22.87;70.78;99986.71;126062;1096;102900;-73
2021/07/27 02:41:01;;;;;;;0.40;0.00;;;;;;;22.87;70.51;99991.26;125902;1096;114050;-73
2021/07/27 02:43:29;;;;;;;0.40;0.00;;;;;;;22.78;71.11;99992.91;126065;1093;102881;-73
2021/07/27 02:45:56;;;;;;;0.40;0.00;;;;;;;22.80;70.85;99995.50;125990;1095;102891;-73
2021/07/27 02:48:23;;;;;;;0.40;0.00;;;;;;;22.80;70.50;100000.92;125948;1094;113897;-73
2021/07/27 02:51:01;;;;;;;0.40;0.00;;;;;;;22.84;70.22;99996.96;125908;1095;103018;-73
2021/07/27 02:53:31;;;;;;;0.40;0.00;;;;;;;22.93;69.62;99998.89;125935;1095;113964;-73
2021/07/27 02:56:00;;;;;;;0.40;0.00;;;;;;;22.92;69.30;99991.73;125967;1096;102889;-74
2021/07/27 02:58:29;;;;;;;0.40;0.00;;;;;;;22.83;69.80;99997.94;125950;1094;114240;-73
2021/07/27 03:00:56;;;;;;;0.40;0.00;;;;;;;22.74;70.10;99993.28;125989;1094;105645;-70
2021/07/27 03:03:23;;;;;;;0.40;0.00;;;;;;;22.62;70.17;99996.05;126054;1094;102988;-72
2021/07/27 03:06:02;;;;;;;0.40;0.00;;;;;;;22.57;70.78;99984.72;125904;1095;113936;-71
2021/07/27 03:08:45;;;;;;;0.40;0.00;;;;;;;22.58;70.67;99980.14;126035;1093;102897;-73
2021/07/27 03:11:13;;;;;;;0.40;0.00;;;;;;;22.68;70.38;99975.67;125835;1095;113929;-71
2021/07/27 03:13:41;;;;;;;0.40;0.00;;;;;;;22.76;70.21;99970.45;126059;1095;103019;-72
2021/07/27 03:16:17;;;;;;;0.40;0.00;;;;;;;22.85;69.80;99968.83;125873;1093;114518;-71
2021/07/27 03:18:46;;;;;;;0.40;0.00;;;;;;;22.90;69.44;99974.73;126020;1095;103017;-73
2021/07/27 03:21:17;;;;;;;0.40;0.00;;;;;;;22.98;69.07;99968.62;126520;1094;103260;-73
2021/07/27 03:23:45;;;;;;;0.40;0.00;;;;;;;23.02;69.05;99967.39;126121;1096;113882;-73
2021/07/27 03:26:13;;;;;;;0.40;0.00;;;;;;;23.02;69.11;99965.52;125999;1095;103001;-73
2021/07/27 03:28:40;;;;;;;0.40;0.00;;;;;;;23.04;68.80;99963.55;125879;1096;114146;-73
2021/07/27 03:31:08;;;;;;;0.40;0.00;;;;;;;22.97;69.03;99966.92;125970;1093;102978;-73
2021/07/27 03:33:35;;;;;;;0.40;0.00;;;;;;;22.89;69.67;99975.72;125990;1093;103002;-73
2021/07/27 03:36:02;;;;;;;0.40;0.00;;;;;;;22.85;69.66;99968.83;125840;1096;114153;-73
2021/07/27 03:38:30;;;;;;;0.40;0.00;;;;;;;22.82;70.14;99972.66;125975;1095;103039;-71
2021/07/27 03:41:09;;;;;;;0.40;0.00;;;;;;;22.68;70.36;99978.39;125831;1095;113945;-71
2021/07/27 03:43:37;;;;;;;0.40;0.00;;;;;;;22.51;70.74;99980.67;126029;1096;103003;-73
2021/07/27 03:46:05;;;;;;;0.40;0.00;;;;;;;22.68;70.31;99978.39;126691;1094;114115;-71
2021/07/27 03:48:33;;;;;;;0.40;0.00;;;;;;;22.81;70.25;99976.36;126070;1095;102881;-71
2021/07/27 03:51:00;;;;;;;0.40;0.00;;;;;;;22.79;70.66;99981.07;125942;1094;102959;-72
2021/07/27 03:53:28;;;;;;;0.40;0.00;;;;;;;22.57;71.16;99983.87;125948;1096;113946;-71
2021/07/27 03:55:55;;;;;;;0.40;0.00;;;;;;;22.38;71.37;99983.53;125963;1094;102929;-71
2021/07/27 03:58:22;;;;;;;0.40;0.00;;;;;;;22.46;71.81;99977.48;125974;1096;114093;-71
2021/07/27 04:00:49;;;;;;;0.40;0.00;;;;;;;22.63;71.20;99983.33;126010;1095;102985;-71
2021/07/27 04:03:17;;;;;;;0.40;0.00;;;;;;;22.56;71.81;99988.41;126021;1095;102916;-71
2021/07/27 04:05:44;;;;;;;0.40;0.00;;;;;;;22.75;71.22;99987.72;125885;1094;114005;-71
2021/07/27 04:08:14;;;;;;;0.40;0.00;;;;;;;22.89;70.95;99983.86;126008;1094;102883;-72
2021/07/27 04:10:42;;;;;;;0.40;0.00;;;;;;;22.81;70.91;99980.94;125906;1095;114191;-72
2021/07/27 04:13:09;;;;;;;0.40;0.00;;;;;;;22.66;71.91;99980.38;126044;1096;102904;-71
2021/07/27 04:15:36;;;;;;;0.40;0.00;;;;;;;22.49;72.17;99979.07;126013;1093;102910;-71
2021/07/27 04:18:03;;;;;;;0.40;0.00;;;;;;;22.34;72.35;99968.47;125952;1094;114091;-72
2021/07/27 04:20:30;;;;;;;0.40;0.00;;;;;;;22.24;73.19;99970.20;125991;1096;103130;-71
2021/07/27 04:22:57;;;;;;;0.40;0.00;;;;;;;22.20;72.94;99968.73;125910;1096;114112;-72
2021/07/27 04:25:24;;;;;;;0.40;0.00;;;;;;;22.26;73.23;99970.95;125982;1095;102886;-71
2021/07/27 04:27:52;;;;;;;0.40;0.08;;;;;;;22.46;73.13;99980.19;126101;1095;102890;-72
2021/07/27 04:30:19;;;;;;;0.40;0.00;;;;;;;22.46;72.55;99974.77;125801;1093;113765;-72
2021/07/27 04:32:46;;;;;;;0.40;0.00;;;;;;;22.44;72.96;99962.31;126001;1096;102964;-71
2021/07/27 04:35:13;;;;;;;0.40;0.00;;;;;;;22.60;72.89;99973.59;125853;1095;113954;-72
2021/07/27 04:37:40;;;;;;;0.40;0.00;;;;;;;22.50;72.62;99970.80;126066;1094;102894;-71
2021/07/27 04:40:08;;;;;;;0.40;0.00;;;;;;;22.59;73.05;99974.58;125819;1094;114670;-71
2021/07/27 04:42:35;;;;;;;0.40;0.00;;;;;;;22.53;73.04;99978.67;126054;1095;103048;-72
2021/07/27 04:45:03;;;;;;;0.40;0.00;;;;;;;22.45;72.86;99975.74;126007;1096;102938;-71
2021/07/27 04:47:30;;;;;;;0.40;0.00;;;;;;;22.55;72.96;99975.83;125940;1095;113948;-71
2021/07/27 04:49:57;;;;;;;0.40;0.00;;;;;;;22.57;73.23;99982.00;125982;1096;103024;-71
2021/07/27 04:52:24;;;;;;;0.40;0.00;;;;;;;22.74;72.57;99980.59;125895;1096;114179;-71
2021/07/27 04:54:58;;;;;;;0.40;0.00;;;;;;;22.82;72.32;99974.52;125983;1096;104180;-71
2021/07/27 04:57:25;;;;;;;0.40;0.00;;;;;;;22.74;72.28;99964.30;125997;1093;103460;-72
2021/07/27 04:59:52;;;;;;;0.40;0.00;;;;;;;22.68;72.89;99973.80;125803;1095;114154;-71
2021/07/27 05:02:22;;;;;;;0.40;0.00;;;;;;;22.63;73.01;99967.93;125964;1096;102903;-72
2021/07/27 05:04:49;;;;;;;0.40;0.00;;;;;;;22.62;73.04;99951.75;125826;1096;113921;-71
2021/07/27 05:07:16;;;;;;;0.40;0.00;;;;;;;22.71;72.73;99959.11;125993;1095;103042;-71
2021/07/27 05:09:43;;;;;;;0.40;0.00;;;;;;;22.80;72.75;99963.77;125917;1095;103004;-72
2021/07/27 05:12:11;;;;;;;0.40;0.00;;;;;;;23.00;72.85;99964.78;125893;1096;113956;-72
2021/07/27 05:14:38;;;;;;;0.40;0.00;;;;;;;23.27;71.44;99960.73;125956;1093;103749;-73
2021/07/27 05:17:09;;;;;;;0.40;0.00;;;;;;;23.41;71.46;99956.80;125889;1093;113944;-72
2021/07/27 05:19:53;;;;;;;0.40;0.00;;;;;;;23.29;70.94;99963.31;125946;1095;103115;-73
2021/07/27 05:22:22;;;;;;;0.40;0.00;;;;;;;23.31;71.04;99964.02;125863;1095;114116;-71
2021/07/27 05:24:54;;;;;;;0.40;0.00;;;;;;;23.34;70.86;99953.76;127572;1093;101481;-72
2021/07/27 05:27:22;;;;;;;0.40;0.00;;;;;;;23.52;71.09;99955.86;127147;1093;102877;-72
2021/07/27 05:29:52;;;;;;;0.40;0.00;;;;;;;23.57;71.31;99952.75;127509;1094;113946;-72
2021/07/27 05:32:25;;;;;;;0.40;0.00;;;;;;;23.50;71.28;99961.43;126233;1093;103019;-78
2021/07/27 05:34:53;;;;;;;0.40;0.00;;;;;;;23.49;70.96;99962.42;127065;1095;113965;-75
2021/07/27 05:37:20;;;;;;;0.40;0.00;;;;;;;23.53;71.68;99969.30;126021;1096;103302;-75
2021/07/27 05:39:48;;;;;;;0.40;0.00;;;;;;;23.67;71.98;99980.81;125999;1096;102961;-75
2021/07/27 05:42:15;;;;;;;0.40;0.00;;;;;;;23.83;70.98;99977.60;125936;1096;113967;-75
2021/07/27 05:44:43;;;;;;;0.40;0.00;;;;;;;23.93;71.44;99978.55;126036;1095;103051;-75
2021/07/27 05:47:10;;;;;;;0.40;0.00;;;;;;;24.05;70.47;99987.47;125985;1095;113976;-75
2021/07/27 05:49:38;;;;;;;0.40;0.00;;;;;;;24.09;71.16;99997.07;126004;1096;103127;-75
2021/07/27 05:52:06;;;;;;;0.40;0.00;;;;;;;24.11;70.95;99996.92;125926;1095;114118;-77
2021/07/27 05:54:34;;;;;;;0.40;0.00;;;;;;;24.15;71.39;99998.38;126034;1095;103023;-77
2021/07/27 05:57:01;;;;;;;0.40;0.00;;;;;;;24.28;70.01;100003.58;126092;1095;103025;-78
2021/07/27 05:59:29;;;;;;;0.40;0.00;;;;;;;24.43;70.05;100004.92;125936;1096;114222;-74
2021/07/27 06:01:56;;;;;;;0.40;0.00;;;;;;;24.65;70.46;100013.87;126023;1096;102997;-75
2021/07/27 06:04:24;;;;;;;0.40;0.00;;;;;;;24.79;70.63;100008.02;125852;1096;114698;-75
2021/07/27 06:06:51;;;;;;;0.40;0.00;;;;;;;24.83;69.36;100014.02;126079;1095;103109;-75
2021/07/27 06:09:20;;;;;;;0.40;0.00;;;;;;;24.86;68.95;100020.05;125974;1095;103023;-75
2021/07/27 06:11:48;;;;;;;0.40;0.00;;;;;;;24.84;68.63;100026.64;125964;1094;114162;-75
2021/07/27 06:14:15;;;;;;;0.40;0.00;;;;;;;24.87;69.15;100020.89;125927;1096;102968;-75
2021/07/27 06:16:43;;;;;;;0.40;0.00;;;;;;;25.00;69.01;100020.63;125960;1096;114337;-78
2021/07/27 06:19:11;;;;;;;0.40;0.00;;;;;;;25.08;68.46;100026.20;125875;1096;103415;-76
2021/07/27 06:21:39;;;;;;;0.40;0.00;;;;;;;25.08;68.90;100017.19;125964;1096;103364;-77
2021/07/27 06:24:08;;;;;;;0.40;0.00;;;;;;;25.04;69.01;100016.61;125841;1095;114334;-76
2021/07/27 06:26:37;;;;;;;0.40;0.00;;;;;;;25.03;69.29;100021.20;126007;1095;103019;-76
2021/07/27 06:29:05;;;;;;;0.40;0.00;;;;;;;25.06;68.71;100014.61;125772;1096;113577;-78
2021/07/27 06:31:33;;;;;;;0.40;0.00;;;;;;;25.11;68.93;100023.22;125989;1096;102900;-75
2021/07/27 06:34:02;;;;;;;0.40;0.00;;;;;;;25.26;66.84;100017.30;125887;1095;103012;-75
2021/07/27 06:36:30;;;;;;;0.40;0.00;;;;;;;25.37;67.74;100020.77;127467;1095;114046;-76
2021/07/27 06:38:58;;;;;;;0.40;0.00;;;;;;;25.37;68.30;100019.92;127554;1095;100948;-75
2021/07/27 06:41:29;;;;;;;0.40;0.00;;;;;;;25.41;67.65;100024.07;127517;1096;114476;-75
2021/07/27 06:43:57;;;;;;;0.40;0.00;;;;;;;25.51;66.38;100048.58;127591;1096;100977;-76
2021/07/27 06:46:28;;;;;;;0.40;0.00;;;;;;;25.58;67.41;100046.13;127532;1095;114179;-75
2021/07/27 06:48:57;;;;;;;0.40;0.00;;;;;;;25.66;67.24;100051.73;127449;1096;100980;-75
2021/07/27 06:51:25;;;;;;;0.40;0.00;;;;;;;25.77;67.68;100050.70;126092;1096;102897;-75
2021/07/27 06:53:53;;;;;;;0.40;0.00;;;;;;;25.82;66.29;100054.70;125950;1095;114568;-74
2021/07/27 06:56:20;;;;;;;0.40;0.00;;;;;;;25.85;66.24;100053.55;126032;1095;102955;-75
2021/07/27 06:58:47;;;;;;;0.40;0.00;;;;;;;25.86;65.97;100068.91;125857;1095;114345;-76
2021/07/27 07:01:15;;;;;;;0.40;0.00;;;;;;;25.84;66.31;100062.73;125984;1096;103387;-76
2021/07/27 07:03:43;;;;;;;0.40;0.00;;;;;;;25.92;66.16;100075.64;125993;1095;102916;-75
2021/07/27 07:06:13;;;;;;;0.40;0.00;;;;;;;25.94;63.91;100070.88;125956;1096;114145;-75
2021/07/27 07:08:40;;;;;;;0.40;0.00;;;;;;;25.80;63.82;100073.07;125977;1094;103132;-75
2021/07/27 07:11:10;;;;;;;0.40;0.00;;;;;;;25.74;64.87;100084.59;125927;1095;114537;-75
2021/07/27 07:13:38;;;;;;;0.40;0.00;;;;;;;25.71;64.11;100079.41;125826;1096;102957;-75
2021/07/27 07:16:09;;;;;;;0.40;0.00;;;;;;;25.70;64.31;100073.10;126002;1096;102968;-75
2021/07/27 07:18:37;;;;;;;0.40;0.00;;;;;;;25.74;64.46;100079.13;125811;1095;113981;-76
2021/07/27 07:21:05;;;;;;;0.40;0.00;;;;;;;25.75;65.38;100075.41;125923;1095;103003;-76
2021/07/27 07:23:33;;;;;;;0.40;0.00;;;;;;;25.78;64.79;100075.10;125777;1096;114206;-76
2021/07/27 07:26:05;;;;;;;0.40;0.00;;;;;;;25.68;64.34;100077.86;125933;1095;102917;-77
2021/07/27 07:28:33;;;;;;;0.40;0.00;;;;;;;25.73;65.58;100077.41;125791;1096;114270;-71
2021/07/27 07:31:03;;;;;;;0.40;0.00;;;;;;;25.64;64.43;100070.10;125897;1096;103371;-71
2021/07/27 07:33:30;;;;;;;0.40;0.00;;;;;;;25.51;64.67;100073.13;125945;1095;103865;-73
2021/07/27 07:35:58;;;;;;;0.40;0.00;;;;;;;25.40;65.21;100079.59;125877;1095;114117;-71
2021/07/27 07:38:25;;;;;;;0.40;0.00;;;;;;;25.41;65.87;100089.50;125947;1095;102992;-71
2021/07/27 07:40:52;;;;;;;0.40;0.00;;;;;;;25.34;65.33;100096.55;125879;1095;114294;-71
2021/07/27 07:43:19;;;;;;;0.40;0.00;;;;;;;25.26;65.42;100097.22;125909;1094;102895;-71
2021/07/27 07:45:46;;;;;;;0.40;0.00;;;;;;;25.25;66.08;100090.05;125996;1096;102978;-71
2021/07/27 07:48:13;;;;;;;0.40;0.00;;;;;;;25.14;65.15;100099.22;125819;1095;114083;-70
2021/07/27 07:50:40;;;;;;;0.40;0.00;;;;;;;25.15;65.58;100114.58;125958;1096;102998;-71
2021/07/27 07:53:08;;;;;;;0.40;0.00;;;;;;;25.06;65.88;100109.98;125914;1095;114345;-71
2021/07/27 07:55:35;;;;;;;0.40;0.00;;;;;;;25.04;65.82;100111.97;125887;1095;102982;-71
2021/07/27 07:58:02;;;;;;;0.40;0.00;;;;;;;25.12;66.54;100117.56;125847;1095;103036;-71
2021/07/27 08:00:29;;;;;;;0.40;0.00;;;;;;;25.26;66.30;100115.42;125817;1094;114146;-71
2021/07/27 08:02:56;;;;;;;0.40;0.00;;;;;;;25.24;66.63;100118.30;125895;1095;102915;-71
2021/07/27 08:05:24;;;;;;;0.40;0.00;;;;;;;25.26;66.12;100121.76;125785;1095;114117;-71
2021/07/27 08:07:51;;;;;;;0.40;0.00;;;;;;;25.23;65.33;100118.45;125919;1096;102919;-71
2021/07/27 08:10:18;;;;;;;0.40;0.00;;;;;;;25.35;65.89;100118.20;125845;1094;114039;-71
2021/07/27 08:12:47;;;;;;;0.40;0.00;;;;;;;25.33;65.51;100109.27;126284;1096;102987;-71
2021/07/27 08:15:18;;;;;;;0.40;0.00;;;;;;;25.34;65.50;100107.45;125911;1095;103045;-71
2021/07/27 08:17:45;;;;;;;0.40;0.00;;;;;;;25.27;65.39;100089.89;125891;1096;114143;-71
2021/07/27 08:20:14;;;;;;;0.40;0.00;;;;;;;25.27;65.85;100085.33;126034;1095;103036;-71
2021/07/27 08:22:42;;;;;;;0.40;0.00;;;;;;;25.28;65.15;100080.72;125935;1094;114547;-70
2021/07/27 08:25:18;;;;;;;0.40;0.00;;;;;;;25.17;65.40;100068.11;126001;1096;102882;-72
2021/07/27 08:27:46;;;;;;;0.40;0.00;;;;;;;25.13;65.67;100064.80;126052;1095;102885;-73
2021/07/27 08:30:14;;;;;;;0.40;0.00;;;;;;;25.06;65.53;100068.23;125905;1096;114508;-72
2021/07/27 08:32:46;;;;;;;0.40;0.00;;;;;;;25.01;66.05;100058.62;126152;1094;103085;-71
2021/07/27 08:35:15;;;;;;;0.40;0.00;;;;;;;25.05;66.32;100053.75;125833;1094;114562;-73
2021/07/27 08:37:42;;;;;;;0.40;0.00;;;;;;;24.93;65.72;100058.47;125933;1095;102946;-72
2021/07/27 08:40:10;;;;;;;0.40;0.00;;;;;;;24.78;66.17;100063.48;125990;1096;102925;-73
2021/07/27 08:42:41;;;;;;;0.40;0.00;;;;;;;24.75;65.97;100057.44;125880;1094;114134;-73
2021/07/27 08:45:10;;;;;;;0.40;0.00;;;;;;;24.71;66.53;100059.58;126012;1096;103029;-73
2021/07/27 08:47:41;;;;;;;0.40;0.00;;;;;;;24.74;66.63;100064.77;125893;1096;114251;-73
2021/07/27 08:50:09;;;;;;;0.40;0.00;;;;;;;24.76;66.31;100068.19;126367;1095;102921;-73
2021/07/27 08:52:37;;;;;;;0.40;0.00;;;;;;;24.82;66.79;100080.41;125873;1095;114321;-73
2021/07/27 08:55:06;;;;;;;0.40;0.00;;;;;;;24.94;66.59;100075.67;126313;1095;103060;-73
2021/07/27 08:57:33;;;;;;;0.40;0.00;;;;;;;25.07;66.56;100080.85;125984;1096;103019;-73
2021/07/27 09:00:00;;;;;;;0.40;0.00;;;;;;;25.16;66.58;100080.84;125909;1095;114102;-73
2021/07/27 09:02:31;;;;;;;0.40;0.00;;;;;;;25.24;66.60;100071.96;125987;1095;102903;-73
2021/07/27 09:05:05;;;;;;;0.40;0.00;;;;;;;25.35;65.82;100076.44;125893;1096;114402;-73
2021/07/27 09:07:32;;;;;;;0.40;0.00;;;;;;;25.50;65.60;100068.70;125980;1095;102888;-73
2021/07/27 09:09:59;;;;;;;0.40;0.00;;;;;;;25.69;66.10;100075.98;125974;1095;103180;-73
2021/07/27 09:12:26;;;;;;;0.40;0.00;;;;;;;26.00;64.97;100071.14;125812;1095;114408;-72
2021/07/27 09:14:53;;;;;;;0.40;0.00;;;;;;;26.21;64.50;100067.38;125939;1095;102946;-71
2021/07/27 09:17:26;;;;;;;0.40;0.00;;;;;;;26.29;64.23;100072.09;125889;1095;114204;-71
2021/07/27 09:19:56;;;;;;;0.40;0.00;;;;;;;26.35;63.90;100066.89;125954;1095;102956;-71
2021/07/27 09:22:23;;;;;;;0.40;0.00;;;;;;;26.44;63.32;100075.18;125818;1096;114299;-71
2021/07/27 09:24:50;;;;;;;0.40;0.00;;;;;;;26.59;63.21;100080.98;125814;1096;103006;-71
2021/07/27 09:27:27;;;;;;;0.40;0.00;;;;;;;26.95;62.03;100090.16;126033;1095;102965;-71
2021/07/27 09:29:55;;;;;;;0.40;0.00;;;;;;;27.25;62.13;100095.41;125895;1095;114240;-72
2021/07/27 09:32:22;;;;;;;0.40;0.00;;;;;;;27.52;61.45;100095.34;125959;1096;103057;-71
2021/07/27 09:34:50;;;;;;;0.40;0.00;;;;;;;27.86;60.38;100090.98;125845;1096;114453;-74
2021/07/27 09:37:25;;;;;;;0.40;0.00;;;;;;;27.92;59.21;100092.20;125998;1096;103059;-74
2021/07/27 09:39:53;;;;;;;0.40;0.00;;;;;;;27.73;58.66;100094.13;126212;1095;104536;-72
2021/07/27 09:42:21;;;;;;;0.40;0.00;;;;;;;27.56;59.01;100095.87;125729;1096;114258;-72
2021/07/27 09:44:48;;;;;;;0.40;0.00;;;;;;;27.48;57.75;100096.65;125885;1095;103067;-72
2021/07/27 09:47:16;;;;;;;0.40;0.00;;;;;;;27.39;58.00;100107.69;125817;1096;114308;-72
2021/07/27 09:49:43;;;;;;;0.40;0.00;;;;;;;27.52;59.44;100111.76;125931;1095;102959;-72
2021/07/27 09:52:11;;;;;;;0.40;0.00;;;;;;;27.84;57.74;100107.56;125916;1096;102911;-72
2021/07/27 09:54:39;;;;;;;0.40;0.00;;;;;;;28.57;56.65;100121.86;125853;1095;114119;-72
2021/07/27 09:57:06;;;;;;;0.40;0.00;;;;;;;28.76;55.98;100119.91;125969;1095;103013;-72
2021/07/27 09:59:34;;;;;;;0.40;0.00;;;;;;;29.38;52.85;100126.92;125917;1095;114115;-72
2021/07/27 10:02:05;;;;;;;0.40;0.00;;;;;;;30.07;52.73;100123.84;126013;1096;103354;-72
2021/07/27 10:04:38;;;;;;;0.40;0.00;;;;;;;31.16;50.39;100133.27;125931;1095;114414;-72
2021/07/27 10:07:06;;;;;;;0.40;0.00;;;;;;;31.62;48.20;100124.19;126035;1095;103112;-72
2021/07/27 10:09:35;;;;;;;0.40;0.00;;;;;;;31.48;48.55;100131.33;126059;1094;102886;-72
2021/07/27 10:12:07;;;;;;;0.40;0.00;;;;;;;31.73;47.54;100131.14;125758;1095;114143;-72
2021/07/27 10:14:42;;;;;;;0.40;0.00;;;;;;;32.41;46.73;100136.69;126386;1096;102876;-72
2021/07/27 10:17:09;;;;;;;0.40;0.00;;;;;;;32.64;45.30;100135.72;125954;1096;114288;-72
2021/07/27 10:19:45;;;;;;;0.40;0.00;;;;;;;33.28;42.92;100139.73;126066;1094;103021;-72
2021/07/27 10:22:15;;;;;;;0.40;0.00;;;;;;;33.92;42.86;100130.58;126026;1095;102877;-73
2021/07/27 10:24:44;;;;;;;0.40;0.00;;;;;;;34.50;41.21;100124.83;125881;1096;114159;-73
2021/07/27 10:27:25;;;;;;;0.40;0.00;;;;;;;34.53;40.79;100131.88;126035;1095;102990;-73
2021/07/27 10:30:07;;;;;;;0.40;0.00;;;;;;;34.89;40.24;100141.02;125964;1095;114221;-72
2021/07/27 10:32:35;;;;;;;0.40;0.00;;;;;;;34.93;40.11;100136.77;126023;1095;102893;-73
2021/07/27 10:35:33;;;;;;;0.40;0.00;;;;;;;35.24;40.18;100138.98;125948;1096;114305;-73
2021/07/27 10:38:08;;;;;;;0.40;0.00;;;;;;;35.67;37.72;100143.36;126002;1094;103345;-73
2021/07/27 10:40:39;;;;;;;0.40;0.00;;;;;;;35.80;39.54;100137.82;125923;1095;114290;-73
2021/07/27 10:43:09;;;;;;;0.40;0.00;;;;;;;36.31;38.52;100133.52;126054;1095;102914;-73
2021/07/27 10:45:37;;;;;;;0.40;0.00;;;;;;;36.78;38.29;100136.17;126057;1094;103409;-73
2021/07/27 10:48:05;;;;;;;0.40;0.00;;;;;;;37.15;35.24;100138.39;125867;1094;114116;-73
2021/07/27 10:50:33;;;;;;;0.40;0.00;;;;;;;37.29;34.95;100139.15;126009;1094;102949;-73
2021/07/27 10:53:09;;;;;;;0.40;0.00;;;;;;;37.75;35.30;100135.22;125880;1094;114326;-73
2021/07/27 10:55:37;;;;;;;0.40;0.00;;;;;;;38.04;33.87;100135.62;126083;1096;102969;-72
2021/07/27 10:58:16;;;;;;;0.40;0.00;;;;;;;38.44;33.81;100134.39;126000;1096;102972;-72
2021/07/27 11:00:43;;;;;;;0.40;0.00;;;;;;;37.71;33.94;100127.55;126030;1096;113866;-73
2021/07/27 11:03:11;;;;;;;0.40;0.00;;;;;;;36.75;34.36;100130.20;125975;1096;103046;-73
2021/07/27 11:05:38;;;;;;;0.40;0.00;;;;;;;36.19;35.59;100131.62;125918;1096;114123;-72
2021/07/27 11:08:05;;;;;;;0.40;0.00;;;;;;;35.66;35.06;100142.48;125948;1096;102893;-73
2021/07/27 11:10:33;;;;;;;0.40;0.00;;;;;;;34.89;35.18;100150.16;125918;1096;114316;-71
2021/07/27 11:13:00;;;;;;;0.40;0.00;;;;;;;34.20;37.63;100135.25;125985;1096;103085;-72
2021/07/27 11:15:29;;;;;;;0.40;0.00;;;;;;;33.67;39.63;100135.67;126055;1096;102888;-72
2021/07/27 11:18:03;;;;;;;0.40;0.00;;;;;;;33.33;38.40;100145.53;125994;1096;114116;-73
2021/07/27 11:20:35;;;;;;;0.40;0.00;;;;;;;33.22;39.59;100135.83;126264;1095;103023;-73
2021/07/27 11:23:09;;;;;;;0.40;0.00;;;;;;;32.67;36.73;100136.20;125840;1095;114437;-75
2021/07/27 11:25:37;;;;;;;0.40;0.00;;;;;;;32.23;38.80;100134.31;126022;1095;103377;-74
2021/07/27 11:28:11;;;;;;;0.40;0.00;;;;;;;31.80;39.67;100131.25;126034;1095;103050;-74
2021/07/27 11:30:39;;;;;;;0.40;0.00;;;;;;;31.54;41.55;100134.36;125933;1096;114043;-74
2021/07/27 11:33:19;;;;;;;0.40;0.00;;;;;;;31.35;42.23;100128.34;125985;1094;102945;-72
2021/07/27 11:35:49;;;;;;;0.40;0.00;;;;;;;31.05;41.00;100135.58;125941;1095;114142;-73
2021/07/27 11:38:23;;;;;;;0.40;0.00;;;;;;;30.83;42.42;100127.92;126040;1095;102877;-72